createdAt,value
2022-12-07T00:00:05.475Z,32.20
2022-12-07T00:00:16.285Z,32.90
2022-12-07T00:00:28.006Z,33.80
2022-12-07T00:00:40.465Z,32.70
2022-12-07T00:00:52.159Z,32.80
2022-12-07T00:01:02.905Z,33.10
2022-12-07T00:01:13.739Z,33.40
2022-12-07T00:01:26.196Z,34.30
2022-12-07T00:01:36.928Z,34.20
2022-12-07T00:01:48.939Z,33.90
2022-12-07T00:02:00.738Z,34.30
2022-12-07T00:02:14.061Z,35.10
2022-12-07T00:02:26.552Z,36.20
2022-12-07T00:02:37.371Z,35.80
2022-12-07T00:02:48.150Z,35.10
2022-12-07T00:02:59.921Z,34.60
2022-12-07T00:03:11.677Z,35.70
2022-12-07T00:03:24.237Z,36.60
2022-12-07T00:03:36.579Z,36.50
2022-12-07T00:03:48.494Z,36.40
2022-12-07T00:03:59.275Z,34.70
2022-12-07T00:04:11.252Z,34.90
2022-12-07T00:04:22.036Z,33.70
2022-12-07T00:04:32.808Z,34.10
2022-12-07T00:04:44.796Z,34.10
2022-12-07T00:04:55.578Z,34.10
2022-12-07T00:05:07.298Z,34.80
2022-12-07T00:05:19.036Z,35.40
2022-12-07T00:05:29.818Z,36.00
2022-12-07T00:05:40.559Z,36.00
2022-12-07T00:05:52.303Z,35.80
2022-12-07T00:06:05.239Z,35.00
2022-12-07T00:06:16.974Z,34.40
2022-12-07T00:06:27.717Z,34.60
2022-12-07T00:06:38.457Z,34.30
2022-12-07T00:06:50.926Z,33.50
2022-12-07T00:07:04.136Z,33.00
2022-12-07T00:07:17.357Z,34.00
2022-12-07T00:07:30.077Z,33.80
2022-12-07T00:07:41.868Z,33.10
2022-12-07T00:07:52.714Z,32.40
2022-12-07T00:08:06.481Z,32.80
2022-12-07T00:08:18.770Z,32.70
2022-12-07T00:08:30.961Z,31.80
2022-12-07T00:08:41.995Z,31.00
2022-12-07T00:08:52.796Z,30.00
2022-12-07T00:09:03.588Z,30.40
2022-12-07T00:09:14.345Z,29.90
2022-12-07T00:09:26.797Z,29.10
2022-12-07T00:09:37.597Z,29.50
2022-12-07T00:09:48.406Z,29.60
2022-12-07T00:09:59.571Z,29.10
2022-12-07T00:10:12.662Z,29.10
2022-12-07T00:10:23.388Z,29.70
2022-12-07T00:10:34.147Z,29.60
2022-12-07T00:10:44.887Z,29.30
2022-12-07T00:10:57.329Z,28.90
2022-12-07T00:11:08.128Z,28.10
2022-12-07T00:11:18.920Z,28.20
2022-12-07T00:11:31.068Z,28.80
2022-12-07T00:11:43.407Z,28.70
2022-12-07T00:11:54.148Z,27.70
2022-12-07T00:12:05.867Z,28.70
2022-12-07T00:12:17.588Z,28.80
2022-12-07T00:12:30.071Z,28.10
2022-12-07T00:12:40.827Z,28.10
2022-12-07T00:12:52.339Z,27.30
2022-12-07T00:13:03.108Z,27.10
2022-12-07T00:13:16.867Z,27.00
2022-12-07T00:13:27.618Z,26.90
2022-12-07T00:13:38.386Z,26.60
2022-12-07T00:13:49.127Z,27.10
2022-12-07T00:13:59.886Z,26.80
2022-12-07T00:14:10.688Z,27.00
2022-12-07T00:14:21.417Z,27.50
2022-12-07T00:14:32.245Z,28.00
2022-12-07T00:14:43.028Z,27.90
2022-12-07T00:14:55.507Z,27.40
2022-12-07T00:15:06.284Z,28.00
2022-12-07T00:15:17.080Z,28.30
2022-12-07T00:15:27.839Z,29.10
2022-12-07T00:15:41.045Z,28.90
2022-12-07T00:15:51.802Z,28.80
2022-12-07T00:16:02.651Z,28.70
2022-12-07T00:16:14.504Z,28.90
2022-12-07T00:16:25.423Z,29.70
2022-12-07T00:16:36.481Z,30.50
2022-12-07T00:16:49.052Z,30.60
2022-12-07T00:16:59.912Z,29.50
2022-12-07T00:17:10.728Z,28.90
2022-12-07T00:17:21.497Z,28.20
2022-12-07T00:17:33.978Z,28.50
2022-12-07T00:17:46.401Z,28.50
2022-12-07T00:17:57.138Z,28.10
2022-12-07T00:18:10.329Z,28.20
2022-12-07T00:18:23.311Z,28.90
2022-12-07T00:18:34.160Z,28.90
2022-12-07T00:18:44.921Z,28.10
2022-12-07T00:18:58.153Z,26.60
2022-12-07T00:19:09.840Z,24.60
2022-12-07T00:19:21.591Z,24.50
2022-12-07T00:19:32.378Z,25.70
2022-12-07T00:19:43.165Z,26.90
2022-12-07T00:19:55.879Z,26.80
2022-12-07T00:20:08.341Z,26.10
2022-12-07T00:20:19.292Z,25.30
2022-12-07T00:20:30.998Z,25.30
2022-12-07T00:20:43.446Z,25.80
2022-12-07T00:20:54.207Z,27.50
2022-12-07T00:21:04.969Z,27.70
2022-12-07T00:21:15.715Z,29.30
2022-12-07T00:21:26.489Z,30.20
2022-12-07T00:21:38.930Z,30.70
2022-12-07T00:21:49.679Z,30.30
2022-12-07T00:22:00.430Z,30.30
2022-12-07T00:22:11.196Z,29.80
2022-12-07T00:22:23.010Z,29.10
2022-12-07T00:22:35.470Z,28.20
2022-12-07T00:22:48.200Z,29.00
2022-12-07T00:23:00.657Z,30.70
2022-12-07T00:23:12.366Z,33.70
2022-12-07T00:23:23.101Z,35.10
2022-12-07T00:23:35.311Z,34.70
2022-12-07T00:23:46.342Z,34.60
2022-12-07T00:23:57.112Z,33.90
2022-12-07T00:24:07.860Z,29.90
2022-12-07T00:24:22.094Z,28.30
2022-12-07T00:24:33.831Z,28.10
2022-12-07T00:24:44.599Z,28.50
2022-12-07T00:24:57.041Z,29.80
2022-12-07T00:25:07.782Z,32.30
2022-12-07T00:25:18.570Z,32.30
2022-12-07T00:25:30.307Z,30.60
2022-12-07T00:25:43.254Z,27.90
2022-12-07T00:25:54.008Z,26.50
2022-12-07T00:26:04.746Z,25.60
2022-12-07T00:26:16.942Z,25.40
2022-12-07T00:26:28.650Z,25.10
2022-12-07T00:26:41.100Z,25.80
2022-12-07T00:26:53.590Z,25.40
2022-12-07T00:27:06.039Z,25.60
2022-12-07T00:27:18.483Z,26.10
2022-12-07T00:27:30.190Z,27.00
2022-12-07T00:27:41.910Z,27.80
2022-12-07T00:27:52.670Z,27.90
2022-12-07T00:28:04.360Z,27.60
2022-12-07T00:28:16.580Z,26.10
2022-12-07T00:28:28.291Z,25.40
2022-12-07T00:28:40.532Z,25.20
2022-12-07T00:28:53.742Z,25.00
2022-12-07T00:29:05.461Z,23.60
2022-12-07T00:29:18.163Z,23.70
2022-12-07T00:29:28.951Z,22.90
2022-12-07T00:29:39.732Z,23.30
2022-12-07T00:29:50.490Z,23.00
2022-12-07T00:30:01.508Z,22.50
2022-12-07T00:30:14.069Z,21.80
2022-12-07T00:30:25.801Z,22.00
2022-12-07T00:30:38.230Z,22.10
2022-12-07T00:30:50.740Z,21.90
2022-12-07T00:31:01.552Z,22.00
2022-12-07T00:31:12.320Z,22.20
2022-12-07T00:31:24.508Z,22.10
2022-12-07T00:31:35.399Z,20.70
2022-12-07T00:31:48.526Z,20.40
2022-12-07T00:32:00.368Z,20.70
2022-12-07T00:32:11.217Z,20.70
2022-12-07T00:32:23.458Z,20.50
2022-12-07T00:32:34.210Z,20.40
2022-12-07T00:32:46.910Z,21.00
2022-12-07T00:32:59.410Z,22.10
2022-12-07T00:33:11.878Z,21.40
2022-12-07T00:33:24.571Z,20.20
2022-12-07T00:33:35.372Z,20.80
2022-12-07T00:33:46.137Z,20.90
2022-12-07T00:33:57.830Z,20.80
2022-12-07T00:34:08.580Z,20.40
2022-12-07T00:34:21.805Z,20.40
2022-12-07T00:34:32.601Z,20.10
2022-12-07T00:34:43.332Z,20.00
2022-12-07T00:34:55.892Z,19.50
2022-12-07T00:35:08.331Z,18.80
2022-12-07T00:35:20.031Z,20.00
2022-12-07T00:35:30.771Z,20.90
2022-12-07T00:35:44.482Z,21.60
2022-12-07T00:35:55.221Z,21.20
2022-12-07T00:36:06.002Z,21.10
2022-12-07T00:36:19.688Z,20.70
2022-12-07T00:36:34.843Z,21.40
2022-12-07T00:36:46.618Z,20.80
2022-12-07T00:36:58.833Z,20.10
2022-12-07T00:37:11.288Z,21.20
2022-12-07T00:37:22.023Z,20.30
2022-12-07T00:37:33.712Z,19.90
2022-12-07T00:37:44.492Z,20.50
2022-12-07T00:37:56.240Z,19.20
2022-12-07T00:38:08.653Z,18.80
2022-12-07T00:38:20.402Z,16.70
2022-12-07T00:38:32.133Z,15.60
2022-12-07T00:38:42.941Z,16.20
2022-12-07T00:38:53.752Z,17.40
2022-12-07T00:39:05.713Z,18.20
2022-12-07T00:39:20.447Z,18.00
2022-12-07T00:39:33.393Z,17.10
2022-12-07T00:39:45.352Z,17.00
2022-12-07T00:39:57.302Z,17.40
2022-12-07T00:40:09.818Z,16.90
2022-12-07T00:40:21.496Z,17.60
2022-12-07T00:40:33.182Z,17.40
2022-12-07T00:40:43.933Z,17.30
2022-12-07T00:40:54.732Z,17.70
2022-12-07T00:41:05.494Z,17.40
2022-12-07T00:41:16.233Z,17.70
2022-12-07T00:41:30.095Z,18.10
2022-12-07T00:41:40.852Z,17.90
2022-12-07T00:41:51.632Z,18.00
2022-12-07T00:42:03.833Z,18.20
2022-12-07T00:42:14.572Z,18.30
2022-12-07T00:42:25.351Z,18.80
2022-12-07T00:42:37.811Z,18.00
2022-12-07T00:42:50.255Z,17.70
2022-12-07T00:43:01.014Z,17.90
2022-12-07T00:43:11.761Z,17.70
2022-12-07T00:43:24.243Z,18.00
2022-12-07T00:43:36.535Z,18.00
2022-12-07T00:43:49.184Z,18.30
2022-12-07T00:43:59.955Z,18.40
2022-12-07T00:44:12.379Z,18.70
2022-12-07T00:44:23.154Z,19.00
2022-12-07T00:44:33.922Z,19.30
2022-12-07T00:44:46.354Z,18.70
2022-12-07T00:44:57.094Z,19.70
2022-12-07T00:45:07.863Z,19.70
2022-12-07T00:45:18.611Z,18.60
2022-12-07T00:45:32.865Z,18.20
2022-12-07T00:45:45.236Z,18.00
2022-12-07T00:45:57.741Z,18.70
2022-12-07T00:46:08.704Z,18.70
2022-12-07T00:46:19.582Z,18.90
2022-12-07T00:46:30.476Z,19.00
2022-12-07T00:46:42.964Z,19.10
2022-12-07T00:46:53.708Z,19.20
2022-12-07T00:47:04.473Z,19.70
2022-12-07T00:47:16.914Z,19.70
2022-12-07T00:47:28.675Z,20.00
2022-12-07T00:47:41.414Z,19.60
2022-12-07T00:47:52.134Z,19.80
2022-12-07T00:48:05.846Z,19.60
2022-12-07T00:48:19.073Z,20.10
2022-12-07T00:48:31.290Z,19.30
2022-12-07T00:48:42.066Z,19.00
2022-12-07T00:48:54.483Z,18.20
2022-12-07T00:49:06.966Z,19.20
2022-12-07T00:49:18.664Z,19.70
2022-12-07T00:49:30.895Z,19.00
2022-12-07T00:49:43.415Z,18.40
2022-12-07T00:49:55.374Z,18.10
2022-12-07T00:50:06.146Z,19.20
2022-12-07T00:50:16.905Z,19.20
2022-12-07T00:50:30.122Z,19.20
2022-12-07T00:50:40.844Z,19.10
2022-12-07T00:50:53.774Z,19.50
2022-12-07T00:51:06.223Z,19.60
2022-12-07T00:51:17.222Z,19.80
2022-12-07T00:51:27.945Z,19.20
2022-12-07T00:51:40.396Z,19.60
2022-12-07T00:51:52.856Z,19.80
2022-12-07T00:52:04.785Z,20.40
2022-12-07T00:52:15.614Z,20.10
2022-12-07T00:52:26.365Z,20.50
2022-12-07T00:52:38.834Z,20.20
2022-12-07T00:52:49.594Z,20.20
2022-12-07T00:53:01.335Z,19.50
2022-12-07T00:53:13.066Z,19.60
2022-12-07T00:53:25.499Z,19.60
2022-12-07T00:53:41.335Z,20.60
2022-12-07T00:53:57.426Z,21.10
2022-12-07T00:54:09.667Z,21.20
2022-12-07T00:54:20.455Z,21.00
2022-12-07T00:54:32.914Z,20.90
2022-12-07T00:54:46.126Z,21.30
2022-12-07T00:54:57.865Z,20.90
2022-12-07T00:55:09.706Z,20.80
2022-12-07T00:55:20.433Z,21.20
2022-12-07T00:55:32.885Z,21.60
2022-12-07T00:55:45.074Z,21.10
2022-12-07T00:55:55.846Z,20.60
2022-12-07T00:56:06.615Z,20.70
2022-12-07T00:56:17.405Z,21.40
2022-12-07T00:56:28.207Z,22.10
2022-12-07T00:56:38.956Z,22.40
2022-12-07T00:56:50.898Z,21.10
2022-12-07T00:57:03.352Z,21.60
2022-12-07T00:57:15.040Z,21.90
2022-12-07T00:57:25.814Z,22.20
2022-12-07T00:57:38.257Z,22.20
2022-12-07T00:57:50.486Z,22.30
2022-12-07T00:58:02.247Z,21.90
2022-12-07T00:58:14.956Z,21.80
2022-12-07T00:58:27.435Z,22.30
2022-12-07T00:58:38.214Z,21.10
2022-12-07T00:58:51.406Z,20.50
2022-12-07T00:59:02.399Z,21.40
2022-12-07T00:59:13.154Z,22.00
2022-12-07T00:59:25.616Z,21.70
2022-12-07T00:59:36.360Z,22.30
2022-12-07T00:59:48.816Z,21.90
2022-12-07T01:00:00.982Z,22.00
2022-12-07T01:00:11.969Z,22.00
2022-12-07T01:00:24.396Z,22.00
2022-12-07T01:00:36.147Z,22.90
2022-12-07T01:00:47.886Z,23.70
2022-12-07T01:00:59.789Z,23.90
2022-12-07T01:01:10.957Z,23.90
2022-12-07T01:01:23.214Z,23.00
2022-12-07T01:01:35.780Z,22.90
2022-12-07T01:01:48.293Z,22.80
2022-12-07T01:02:01.066Z,22.70
2022-12-07T01:02:13.846Z,22.10
2022-12-07T01:02:25.611Z,22.90
2022-12-07T01:02:37.385Z,22.60
2022-12-07T01:02:50.487Z,22.50
2022-12-07T01:03:01.397Z,22.90
2022-12-07T01:03:12.252Z,23.30
2022-12-07T01:03:23.062Z,22.40
2022-12-07T01:03:33.936Z,21.50
2022-12-07T01:03:44.838Z,21.50
2022-12-07T01:03:57.097Z,22.90
2022-12-07T01:04:08.846Z,24.10
2022-12-07T01:04:19.697Z,23.80
2022-12-07T01:04:32.203Z,23.70
2022-12-07T01:04:42.948Z,23.00
2022-12-07T01:04:53.707Z,23.60
2022-12-07T01:05:04.558Z,23.50
2022-12-07T01:05:15.296Z,23.80
2022-12-07T01:05:26.118Z,23.30
2022-12-07T01:05:36.928Z,24.50
2022-12-07T01:05:47.721Z,24.20
2022-12-07T01:05:59.454Z,23.10
2022-12-07T01:06:12.238Z,22.70
2022-12-07T01:06:24.010Z,22.40
2022-12-07T01:06:34.796Z,23.30
2022-12-07T01:06:45.597Z,24.50
2022-12-07T01:06:56.397Z,25.10
2022-12-07T01:07:07.189Z,25.60
2022-12-07T01:07:17.968Z,25.10
2022-12-07T01:07:28.759Z,25.70
2022-12-07T01:07:39.592Z,25.20
2022-12-07T01:07:50.397Z,24.00
2022-12-07T01:08:01.225Z,23.10
2022-12-07T01:08:12.242Z,23.10
2022-12-07T01:08:23.141Z,23.60
2022-12-07T01:08:34.838Z,24.00
2022-12-07T01:08:45.648Z,24.00
2022-12-07T01:08:57.378Z,23.90
2022-12-07T01:09:08.158Z,23.70
2022-12-07T01:09:20.386Z,24.20
2022-12-07T01:09:32.171Z,24.40
2022-12-07T01:09:42.939Z,24.80
2022-12-07T01:09:53.726Z,25.80
2022-12-07T01:10:04.676Z,26.20
2022-12-07T01:10:18.039Z,25.70
2022-12-07T01:10:31.290Z,26.70
2022-12-07T01:10:42.068Z,27.30
2022-12-07T01:10:52.848Z,25.60
2022-12-07T01:11:05.575Z,24.60
2022-12-07T01:11:16.369Z,25.10
2022-12-07T01:11:27.146Z,25.80
2022-12-07T01:11:37.900Z,25.10
2022-12-07T01:11:49.636Z,24.60
2022-12-07T01:12:00.408Z,24.50
2022-12-07T01:12:11.178Z,25.00
2022-12-07T01:12:24.402Z,25.50
2022-12-07T01:12:35.219Z,25.50
2022-12-07T01:12:46.998Z,26.60
2022-12-07T01:12:58.769Z,27.30
2022-12-07T01:13:10.529Z,28.40
2022-12-07T01:13:21.378Z,27.20
2022-12-07T01:13:32.210Z,26.90
2022-12-07T01:13:43.017Z,26.40
2022-12-07T01:13:53.790Z,26.80
2022-12-07T01:14:04.592Z,26.70
2022-12-07T01:14:15.369Z,26.70
2022-12-07T01:14:26.314Z,26.40
2022-12-07T01:14:37.098Z,26.50
2022-12-07T01:14:48.900Z,26.50
2022-12-07T01:14:59.678Z,26.50
2022-12-07T01:15:11.890Z,26.20
2022-12-07T01:15:22.650Z,25.30
2022-12-07T01:15:33.470Z,24.80
2022-12-07T01:15:44.290Z,24.70
2022-12-07T01:15:55.060Z,25.60
2022-12-07T01:16:05.863Z,25.60
2022-12-07T01:16:16.685Z,26.60
2022-12-07T01:16:29.217Z,25.80
2022-12-07T01:16:40.023Z,25.90
2022-12-07T01:16:50.906Z,25.70
2022-12-07T01:17:01.793Z,25.80
2022-12-07T01:17:13.599Z,26.90
2022-12-07T01:17:24.408Z,27.30
2022-12-07T01:17:35.234Z,27.40
2022-12-07T01:17:46.037Z,26.20
2022-12-07T01:17:57.733Z,25.70
2022-12-07T01:18:08.519Z,25.40
2022-12-07T01:18:19.350Z,25.30
2022-12-07T01:18:30.093Z,25.10
2022-12-07T01:18:40.840Z,24.60
2022-12-07T01:18:51.617Z,25.10
2022-12-07T01:19:02.413Z,25.30
2022-12-07T01:19:14.141Z,25.50
2022-12-07T01:19:26.642Z,26.10
2022-12-07T01:19:37.399Z,26.40
2022-12-07T01:19:48.921Z,26.30
2022-12-07T01:20:00.057Z,26.70
2022-12-07T01:20:11.228Z,26.90
2022-12-07T01:20:22.113Z,26.50
2022-12-07T01:20:32.839Z,25.70
2022-12-07T01:20:43.600Z,25.70
2022-12-07T01:20:54.361Z,25.30
2022-12-07T01:21:05.150Z,25.60
2022-12-07T01:21:17.420Z,25.50
2022-12-07T01:21:28.189Z,25.60
2022-12-07T01:21:39.026Z,24.40
2022-12-07T01:21:49.741Z,25.80
2022-12-07T01:22:01.463Z,25.90
2022-12-07T01:22:12.232Z,26.30
2022-12-07T01:22:24.726Z,25.80
2022-12-07T01:22:35.501Z,25.40
2022-12-07T01:22:48.461Z,25.50
2022-12-07T01:23:01.639Z,26.00
2022-12-07T01:23:14.912Z,26.10
2022-12-07T01:23:27.408Z,27.10
2022-12-07T01:23:41.156Z,27.60
2022-12-07T01:23:53.900Z,26.80
2022-12-07T01:24:06.120Z,26.80
2022-12-07T01:24:18.585Z,27.80
2022-12-07T01:24:29.361Z,27.90
2022-12-07T01:24:40.160Z,27.90
2022-12-07T01:24:51.902Z,27.90
2022-12-07T01:25:04.150Z,28.10
2022-12-07T01:25:14.925Z,27.80
2022-12-07T01:25:26.672Z,27.50
2022-12-07T01:25:39.793Z,28.80
2022-12-07T01:25:50.597Z,30.10
2022-12-07T01:26:01.384Z,30.00
2022-12-07T01:26:12.141Z,28.10
2022-12-07T01:26:24.080Z,28.20
2022-12-07T01:26:34.852Z,27.50
2022-12-07T01:26:45.630Z,27.90
2022-12-07T01:26:56.392Z,28.40
2022-12-07T01:27:08.144Z,29.80
2022-12-07T01:27:18.961Z,29.60
2022-12-07T01:27:29.753Z,29.70
2022-12-07T01:27:42.711Z,28.70
2022-12-07T01:27:54.423Z,29.40
2022-12-07T01:28:06.931Z,28.40
2022-12-07T01:28:19.411Z,27.60
2022-12-07T01:28:31.865Z,27.30
2022-12-07T01:28:42.602Z,28.30
2022-12-07T01:28:54.336Z,28.80
2022-12-07T01:29:05.091Z,29.20
2022-12-07T01:29:15.863Z,29.60
2022-12-07T01:29:26.681Z,29.30
2022-12-07T01:29:37.441Z,28.20
2022-12-07T01:29:48.215Z,28.50
2022-12-07T01:29:59.418Z,28.70
2022-12-07T01:30:12.278Z,28.60
2022-12-07T01:30:24.030Z,27.80
2022-12-07T01:30:34.894Z,28.10
2022-12-07T01:30:45.819Z,29.00
2022-12-07T01:30:56.689Z,29.10
2022-12-07T01:31:09.914Z,28.50
2022-12-07T01:31:20.862Z,28.20
2022-12-07T01:31:31.783Z,27.70
2022-12-07T01:31:42.583Z,27.90
2022-12-07T01:31:53.362Z,27.80
2022-12-07T01:32:05.105Z,28.80
2022-12-07T01:32:15.916Z,28.40
2022-12-07T01:32:26.702Z,28.00
2022-12-07T01:32:37.463Z,27.80
2022-12-07T01:32:48.253Z,27.60
2022-12-07T01:33:00.693Z,27.80
2022-12-07T01:33:11.525Z,28.80
2022-12-07T01:33:23.955Z,27.80
2022-12-07T01:33:36.693Z,28.50
2022-12-07T01:33:49.213Z,28.60
2022-12-07T01:34:01.688Z,28.80
2022-12-07T01:34:14.192Z,28.90
2022-12-07T01:34:25.916Z,28.80
2022-12-07T01:34:38.136Z,28.30
2022-12-07T01:34:48.932Z,28.80
2022-12-07T01:35:00.672Z,28.50
2022-12-07T01:35:12.385Z,29.10
2022-12-07T01:35:24.844Z,28.90
2022-12-07T01:35:35.615Z,28.50
2022-12-07T01:35:46.395Z,28.30
2022-12-07T01:35:57.194Z,28.80
2022-12-07T01:36:07.985Z,28.30
2022-12-07T01:36:18.715Z,29.00
2022-12-07T01:36:29.476Z,29.60
2022-12-07T01:36:40.264Z,30.90
2022-12-07T01:36:52.008Z,31.30
2022-12-07T01:37:02.734Z,31.80
2022-12-07T01:37:13.475Z,29.90
2022-12-07T01:37:24.308Z,29.50
2022-12-07T01:37:36.245Z,29.30
2022-12-07T01:37:46.984Z,29.20
2022-12-07T01:37:57.816Z,28.70
2022-12-07T01:38:09.554Z,28.30
2022-12-07T01:38:22.034Z,28.80
2022-12-07T01:38:32.813Z,29.20
2022-12-07T01:38:43.593Z,28.50
2022-12-07T01:38:54.355Z,29.10
2022-12-07T01:39:06.838Z,28.30
2022-12-07T01:39:17.605Z,29.00
2022-12-07T01:39:28.419Z,29.50
2022-12-07T01:39:39.205Z,29.80
2022-12-07T01:39:49.976Z,29.70
2022-12-07T01:40:02.625Z,29.80
2022-12-07T01:40:13.456Z,29.70
2022-12-07T01:40:24.267Z,30.40
2022-12-07T01:40:35.034Z,30.40
2022-12-07T01:40:45.817Z,30.40
2022-12-07T01:40:58.765Z,30.00
2022-12-07T01:41:09.525Z,29.80
2022-12-07T01:41:21.257Z,30.40
2022-12-07T01:41:33.778Z,28.90
2022-12-07T01:41:44.661Z,28.90
2022-12-07T01:41:55.534Z,28.90
2022-12-07T01:42:06.335Z,29.60
2022-12-07T01:42:17.135Z,29.90
2022-12-07T01:42:27.916Z,29.90
2022-12-07T01:42:38.696Z,30.20
2022-12-07T01:42:49.465Z,29.60
2022-12-07T01:43:00.252Z,29.60
2022-12-07T01:43:13.008Z,29.60
2022-12-07T01:43:23.806Z,30.40
2022-12-07T01:43:36.271Z,30.40
2022-12-07T01:43:48.006Z,30.40
2022-12-07T01:43:59.756Z,29.40
2022-12-07T01:44:12.506Z,29.60
2022-12-07T01:44:25.736Z,30.40
2022-12-07T01:44:38.982Z,29.70
2022-12-07T01:44:49.835Z,28.80
2022-12-07T01:45:02.285Z,30.30
2022-12-07T01:45:15.516Z,31.30
2022-12-07T01:45:27.957Z,30.20
2022-12-07T01:45:38.747Z,30.20
2022-12-07T01:45:49.577Z,29.40
2022-12-07T01:46:01.336Z,28.90
2022-12-07T01:46:12.142Z,28.30
2022-12-07T01:46:23.911Z,29.20
2022-12-07T01:46:34.725Z,29.00
2022-12-07T01:46:45.504Z,28.90
2022-12-07T01:46:57.966Z,28.60
2022-12-07T01:47:09.657Z,30.00
2022-12-07T01:47:21.346Z,30.40
2022-12-07T01:47:33.824Z,30.10
2022-12-07T01:47:45.756Z,30.70
2022-12-07T01:47:57.496Z,29.70
2022-12-07T01:48:09.716Z,29.60
2022-12-07T01:48:21.493Z,29.70
2022-12-07T01:48:33.714Z,29.80
2022-12-07T01:48:44.475Z,30.00
2022-12-07T01:48:56.206Z,29.10
2022-12-07T01:49:08.926Z,28.30
2022-12-07T01:49:19.714Z,29.30
2022-12-07T01:49:30.758Z,30.00
2022-12-07T01:49:41.518Z,30.50
2022-12-07T01:49:54.036Z,30.80
2022-12-07T01:50:05.792Z,31.30
2022-12-07T01:50:17.507Z,30.70
2022-12-07T01:50:29.240Z,30.50
2022-12-07T01:50:40.991Z,31.00
2022-12-07T01:50:51.788Z,31.90
2022-12-07T01:51:04.238Z,31.50
2022-12-07T01:51:14.977Z,30.60
2022-12-07T01:51:25.766Z,30.90
2022-12-07T01:51:38.225Z,32.50
2022-12-07T01:51:50.998Z,32.30
2022-12-07T01:52:01.766Z,31.70
2022-12-07T01:52:13.541Z,31.00
2022-12-07T01:52:24.347Z,30.70
2022-12-07T01:52:36.037Z,30.30
2022-12-07T01:52:48.755Z,30.80
2022-12-07T01:53:00.489Z,30.90
2022-12-07T01:53:12.259Z,31.70
2022-12-07T01:53:23.068Z,32.00
2022-12-07T01:53:33.897Z,32.20
2022-12-07T01:53:45.913Z,31.70
2022-12-07T01:53:58.168Z,31.20
2022-12-07T01:54:09.887Z,30.80
2022-12-07T01:54:20.749Z,31.00
2022-12-07T01:54:32.914Z,31.00
2022-12-07T01:54:45.638Z,31.10
2022-12-07T01:54:59.179Z,31.00
2022-12-07T01:55:12.093Z,31.20
2022-12-07T01:55:23.877Z,30.80
2022-12-07T01:55:34.667Z,31.50
2022-12-07T01:55:45.467Z,31.50
2022-12-07T01:55:56.260Z,31.70
2022-12-07T01:56:07.051Z,32.70
2022-12-07T01:56:17.908Z,33.10
2022-12-07T01:56:28.718Z,32.60
2022-12-07T01:56:39.542Z,31.50
2022-12-07T01:56:51.297Z,31.90
2022-12-07T01:57:02.126Z,31.40
2022-12-07T01:57:12.939Z,31.80
2022-12-07T01:57:23.710Z,32.50
2022-12-07T01:57:35.448Z,32.30
2022-12-07T01:57:47.189Z,33.30
2022-12-07T01:57:57.968Z,32.90
2022-12-07T01:58:10.448Z,32.60
2022-12-07T01:58:21.229Z,32.90
2022-12-07T01:58:33.038Z,33.30
2022-12-07T01:58:43.828Z,33.10
2022-12-07T01:58:54.622Z,32.70
2022-12-07T01:59:06.379Z,33.00
2022-12-07T01:59:17.199Z,33.40
2022-12-07T01:59:28.025Z,34.40
2022-12-07T01:59:38.807Z,33.30
2022-12-07T01:59:49.607Z,33.40
2022-12-07T02:00:00.874Z,34.10
2022-12-07T02:00:11.961Z,33.70
2022-12-07T02:00:22.749Z,33.40
2022-12-07T02:00:33.488Z,33.00
2022-12-07T02:00:45.771Z,33.40
2022-12-07T02:00:56.561Z,34.20
2022-12-07T02:01:09.049Z,33.40
2022-12-07T02:01:19.872Z,32.50
2022-12-07T02:01:31.703Z,32.60
2022-12-07T02:01:42.514Z,34.90
2022-12-07T02:01:53.410Z,35.70
2022-12-07T02:02:05.184Z,34.70
2022-12-07T02:02:16.938Z,33.90
2022-12-07T02:02:29.423Z,34.90
2022-12-07T02:02:40.198Z,34.10
2022-12-07T02:02:52.066Z,36.00
2022-12-07T02:03:03.938Z,35.50
2022-12-07T02:03:16.224Z,35.70
2022-12-07T02:03:26.967Z,35.20
2022-12-07T02:03:38.509Z,34.90
2022-12-07T02:03:50.960Z,35.30
2022-12-07T02:04:01.750Z,35.40
2022-12-07T02:04:12.565Z,34.60
2022-12-07T02:04:25.059Z,34.20
2022-12-07T02:04:38.338Z,34.10
2022-12-07T02:04:50.083Z,34.40
2022-12-07T02:05:03.020Z,34.00
2022-12-07T02:05:14.998Z,33.50
2022-12-07T02:05:27.730Z,34.00
2022-12-07T02:05:38.581Z,34.30
2022-12-07T02:05:51.060Z,33.40
2022-12-07T02:06:03.507Z,32.50
2022-12-07T02:06:14.264Z,32.50
2022-12-07T02:06:27.001Z,32.70
2022-12-07T02:06:37.782Z,33.70
2022-12-07T02:06:50.219Z,33.70
2022-12-07T02:07:00.990Z,32.00
2022-12-07T02:07:11.782Z,31.90
2022-12-07T02:07:24.340Z,31.60
2022-12-07T02:07:36.114Z,32.90
2022-12-07T02:07:47.874Z,33.10
2022-12-07T02:08:00.125Z,32.90
2022-12-07T02:08:11.047Z,33.50
2022-12-07T02:08:21.888Z,33.30
2022-12-07T02:08:32.669Z,33.30
2022-12-07T02:08:44.905Z,33.50
2022-12-07T02:08:57.139Z,32.70
2022-12-07T02:09:07.911Z,31.70
2022-12-07T02:09:20.371Z,31.30
2022-12-07T02:09:33.599Z,31.40
2022-12-07T02:09:44.350Z,31.40
2022-12-07T02:09:55.090Z,31.20
2022-12-07T02:10:08.080Z,30.90
2022-12-07T02:10:18.883Z,31.70
2022-12-07T02:10:29.661Z,32.70
2022-12-07T02:10:40.440Z,32.50
2022-12-07T02:10:51.231Z,32.10
2022-12-07T02:11:04.931Z,31.50
2022-12-07T02:11:15.690Z,30.20
2022-12-07T02:11:28.141Z,28.70
2022-12-07T02:11:38.932Z,29.00
2022-12-07T02:11:49.691Z,29.50
2022-12-07T02:12:01.460Z,29.70
2022-12-07T02:12:13.940Z,28.90
2022-12-07T02:12:26.396Z,29.90
2022-12-07T02:12:38.142Z,30.80
2022-12-07T02:12:49.894Z,31.20
2022-12-07T02:13:00.680Z,31.70
2022-12-07T02:13:12.398Z,33.30
2022-12-07T02:13:23.150Z,34.30
2022-12-07T02:13:33.974Z,34.20
2022-12-07T02:13:44.747Z,32.80
2022-12-07T02:13:57.025Z,32.10
2022-12-07T02:14:08.763Z,31.40
2022-12-07T02:14:19.573Z,31.40
2022-12-07T02:14:30.382Z,31.60
2022-12-07T02:14:42.861Z,31.90
2022-12-07T02:14:56.604Z,32.20
2022-12-07T02:15:10.238Z,32.80
2022-12-07T02:15:23.222Z,32.30
2022-12-07T02:15:36.010Z,31.40
2022-12-07T02:15:49.278Z,30.20
2022-12-07T02:16:00.151Z,30.60
2022-12-07T02:16:11.037Z,30.20
2022-12-07T02:16:21.865Z,30.90
2022-12-07T02:16:33.632Z,31.90
2022-12-07T02:16:45.345Z,32.50
2022-12-07T02:16:56.189Z,33.10
2022-12-07T02:17:08.912Z,33.00
2022-12-07T02:17:19.682Z,32.50
2022-12-07T02:17:30.451Z,31.60
2022-12-07T02:17:42.715Z,32.10
2022-12-07T02:17:55.940Z,32.60
2022-12-07T02:18:06.692Z,31.20
2022-12-07T02:18:17.501Z,31.10
2022-12-07T02:18:28.272Z,32.00
2022-12-07T02:18:39.082Z,32.60
2022-12-07T02:18:49.846Z,31.80
2022-12-07T02:19:01.688Z,31.50
2022-12-07T02:19:13.892Z,30.10
2022-12-07T02:19:25.833Z,29.90
2022-12-07T02:19:38.148Z,29.50
2022-12-07T02:19:48.933Z,30.90
2022-12-07T02:20:00.147Z,31.50
2022-12-07T02:20:11.154Z,30.70
2022-12-07T02:20:22.931Z,30.60
2022-12-07T02:20:34.702Z,31.10
2022-12-07T02:20:45.502Z,32.00
2022-12-07T02:20:56.265Z,32.40
2022-12-07T02:21:08.726Z,32.50
2022-12-07T02:21:19.502Z,31.40
2022-12-07T02:21:30.281Z,31.60
2022-12-07T02:21:42.763Z,32.20
2022-12-07T02:21:53.583Z,33.90
2022-12-07T02:22:04.373Z,32.60
2022-12-07T02:22:16.133Z,32.00
2022-12-07T02:22:26.923Z,30.00
2022-12-07T02:22:38.683Z,30.00
2022-12-07T02:22:49.471Z,30.40
2022-12-07T02:23:01.182Z,31.20
2022-12-07T02:23:11.964Z,31.70
2022-12-07T02:23:23.722Z,30.30
2022-12-07T02:23:34.522Z,30.20
2022-12-07T02:23:45.335Z,30.80
2022-12-07T02:23:56.147Z,31.10
2022-12-07T02:24:06.904Z,30.40
2022-12-07T02:24:17.725Z,30.10
2022-12-07T02:24:29.007Z,29.70
2022-12-07T02:24:39.783Z,29.20
2022-12-07T02:24:50.566Z,29.90
2022-12-07T02:25:02.324Z,29.80
2022-12-07T02:25:14.175Z,31.20
2022-12-07T02:25:27.213Z,30.70
2022-12-07T02:25:38.114Z,29.70
2022-12-07T02:25:51.341Z,30.50
2022-12-07T02:26:03.863Z,33.30
2022-12-07T02:26:14.642Z,33.50
2022-12-07T02:26:25.404Z,31.10
2022-12-07T02:26:38.635Z,29.30
2022-12-07T02:26:49.441Z,29.80
2022-12-07T02:27:00.268Z,30.50
2022-12-07T02:27:13.984Z,30.00
2022-12-07T02:27:26.236Z,29.10
2022-12-07T02:27:38.492Z,29.20
2022-12-07T02:27:49.294Z,29.10
2022-12-07T02:28:01.780Z,28.50
2022-12-07T02:28:13.505Z,29.20
2022-12-07T02:28:25.224Z,29.30
2022-12-07T02:28:36.972Z,29.30
2022-12-07T02:28:47.754Z,28.70
2022-12-07T02:28:58.579Z,29.00